sensor_id;sensor_type;location;lat;lon;timestamp;temperature;humidity
81218;DHT22;70689;52.494;13.420;2023-09-12T00:01:40;23.40;46.80
81218;DHT22;70689;52.494;13.420;2023-09-12T00:04:06;23.40;47.00
81218;DHT22;70689;52.494;13.420;2023-09-12T00:06:31;23.40;47.00
81218;DHT22;70689;52.494;13.420;2023-09-12T00:08:57;23.40;47.10
81218;DHT22;70689;52.494;13.420;2023-09-12T00:11:23;23.30;47.20
81218;DHT22;70689;52.494;13.420;2023-09-12T00:13:51;23.30;47.40
81218;DHT22;70689;52.494;13.420;2023-09-12T00:16:17;23.30;47.50
81218;DHT22;70689;52.494;13.420;2023-09-12T00:18:42;23.30;47.20
81218;DHT22;70689;52.494;13.420;2023-09-12T00:21:08;23.20;47.30
81218;DHT22;70689;52.494;13.420;2023-09-12T00:23:34;23.20;47.00
81218;DHT22;70689;52.494;13.420;2023-09-12T00:25:59;23.30;46.70
81218;DHT22;70689;52.494;13.420;2023-09-12T00:28:25;23.30;47.00
81218;DHT22;70689;52.494;13.420;2023-09-12T00:30:51;23.20;46.80
81218;DHT22;70689;52.494;13.420;2023-09-12T00:33:17;23.20;46.50
81218;DHT22;70689;52.494;13.420;2023-09-12T00:35:44;23.20;46.30
81218;DHT22;70689;52.494;13.420;2023-09-12T00:38:10;23.10;46.20
81218;DHT22;70689;52.494;13.420;2023-09-12T00:40:36;23.10;46.40
81218;DHT22;70689;52.494;13.420;2023-09-12T00:43:03;23.10;46.20
81218;DHT22;70689;52.494;13.420;2023-09-12T00:45:28;23.10;45.90
81218;DHT22;70689;52.494;13.420;2023-09-12T00:47:54;23.10;45.70
81218;DHT22;70689;52.494;13.420;2023-09-12T00:50:22;23.10;45.50
81218;DHT22;70689;52.494;13.420;2023-09-12T00:52:49;23.00;45.10
81218;DHT22;70689;52.494;13.420;2023-09-12T00:55:15;23.00;46.70
81218;DHT22;70689;52.494;13.420;2023-09-12T00:57:41;22.90;45.60
81218;DHT22;70689;52.494;13.420;2023-09-12T01:00:07;22.80;45.80
81218;DHT22;70689;52.494;13.420;2023-09-12T01:02:42;22.90;45.80
81218;DHT22;70689;52.494;13.420;2023-09-12T01:05:09;22.90;46.10
81218;DHT22;70689;52.494;13.420;2023-09-12T01:07:38;22.90;46.20
81218;DHT22;70689;52.494;13.420;2023-09-12T01:10:05;22.90;45.90
81218;DHT22;70689;52.494;13.420;2023-09-12T01:12:31;22.90;45.90
81218;DHT22;70689;52.494;13.420;2023-09-12T01:14:57;22.80;45.80
81218;DHT22;70689;52.494;13.420;2023-09-12T01:17:23;22.80;45.60
81218;DHT22;70689;52.494;13.420;2023-09-12T01:19:49;22.70;45.60
81218;DHT22;70689;52.494;13.420;2023-09-12T01:27:48;22.60;45.70
81218;DHT22;70689;52.494;13.420;2023-09-12T01:30:18;22.50;45.60
81218;DHT22;70689;52.494;13.420;2023-09-12T01:32:45;22.50;45.90
81218;DHT22;70689;52.494;13.420;2023-09-12T01:35:12;22.50;46.00
81218;DHT22;70689;52.494;13.420;2023-09-12T01:37:38;22.50;46.00
81218;DHT22;70689;52.494;13.420;2023-09-12T01:40:04;22.50;45.70
81218;DHT22;70689;52.494;13.420;2023-09-12T01:42:37;22.50;45.90
81218;DHT22;70689;52.494;13.420;2023-09-12T01:45:04;22.50;46.10
81218;DHT22;70689;52.494;13.420;2023-09-12T01:47:30;22.40;46.30
81218;DHT22;70689;52.494;13.420;2023-09-12T01:49:57;22.50;46.20
81218;DHT22;70689;52.494;13.420;2023-09-12T01:52:25;22.60;46.70
81218;DHT22;70689;52.494;13.420;2023-09-12T01:54:53;22.60;46.70
81218;DHT22;70689;52.494;13.420;2023-09-12T01:57:19;22.60;46.60
81218;DHT22;70689;52.494;13.420;2023-09-12T01:59:48;22.50;46.60
81218;DHT22;70689;52.494;13.420;2023-09-12T02:02:18;22.40;46.70
81218;DHT22;70689;52.494;13.420;2023-09-12T02:04:52;22.40;46.60
81218;DHT22;70689;52.494;13.420;2023-09-12T02:07:22;22.30;46.60
81218;DHT22;70689;52.494;13.420;2023-09-12T02:09:48;22.30;46.60
81218;DHT22;70689;52.494;13.420;2023-09-12T02:12:14;22.20;46.80
81218;DHT22;70689;52.494;13.420;2023-09-12T02:14:39;22.20;46.80
81218;DHT22;70689;52.494;13.420;2023-09-12T02:17:05;22.10;46.80
81218;DHT22;70689;52.494;13.420;2023-09-12T02:19:30;22.10;46.60
81218;DHT22;70689;52.494;13.420;2023-09-12T02:21:56;22.20;46.50
81218;DHT22;70689;52.494;13.420;2023-09-12T02:24:22;22.30;46.30
81218;DHT22;70689;52.494;13.420;2023-09-12T02:26:47;22.20;46.20
81218;DHT22;70689;52.494;13.420;2023-09-12T02:29:13;22.20;46.40
81218;DHT22;70689;52.494;13.420;2023-09-12T02:31:38;22.30;46.40
81218;DHT22;70689;52.494;13.420;2023-09-12T02:34:04;22.30;46.10
81218;DHT22;70689;52.494;13.420;2023-09-12T02:36:30;22.30;46.30
81218;DHT22;70689;52.494;13.420;2023-09-12T02:38:56;22.30;46.10
81218;DHT22;70689;52.494;13.420;2023-09-12T02:41:22;22.30;46.20
81218;DHT22;70689;52.494;13.420;2023-09-12T02:43:48;22.20;46.60
81218;DHT22;70689;52.494;13.420;2023-09-12T02:46:13;22.10;46.90
81218;DHT22;70689;52.494;13.420;2023-09-12T02:48:39;22.00;47.20
81218;DHT22;70689;52.494;13.420;2023-09-12T02:51:04;22.10;47.60
81218;DHT22;70689;52.494;13.420;2023-09-12T02:53:30;22.20;47.70
81218;DHT22;70689;52.494;13.420;2023-09-12T02:55:55;22.20;48.30
81218;DHT22;70689;52.494;13.420;2023-09-12T02:58:21;22.10;48.90
81218;DHT22;70689;52.494;13.420;2023-09-12T03:00:47;22.20;48.80
81218;DHT22;70689;52.494;13.420;2023-09-12T03:03:15;22.20;49.10
81218;DHT22;70689;52.494;13.420;2023-09-12T03:05:42;22.10;49.60
81218;DHT22;70689;52.494;13.420;2023-09-12T03:08:08;22.10;50.10
81218;DHT22;70689;52.494;13.420;2023-09-12T03:10:33;22.10;50.40
81218;DHT22;70689;52.494;13.420;2023-09-12T03:12:59;22.10;50.50
81218;DHT22;70689;52.494;13.420;2023-09-12T03:15:24;22.10;50.50
81218;DHT22;70689;52.494;13.420;2023-09-12T03:17:50;22.20;50.30
81218;DHT22;70689;52.494;13.420;2023-09-12T03:20:16;22.20;50.40
81218;DHT22;70689;52.494;13.420;2023-09-12T03:22:41;22.20;50.10
81218;DHT22;70689;52.494;13.420;2023-09-12T03:25:07;22.20;49.90
81218;DHT22;70689;52.494;13.420;2023-09-12T03:27:34;22.20;50.00
81218;DHT22;70689;52.494;13.420;2023-09-12T03:29:59;22.10;50.50
81218;DHT22;70689;52.494;13.420;2023-09-12T03:32:25;22.00;51.00
81218;DHT22;70689;52.494;13.420;2023-09-12T03:34:51;22.00;50.80
81218;DHT22;70689;52.494;13.420;2023-09-12T03:37:16;21.90;50.70
81218;DHT22;70689;52.494;13.420;2023-09-12T03:39:42;21.90;50.70
81218;DHT22;70689;52.494;13.420;2023-09-12T03:42:07;22.00;51.00
81218;DHT22;70689;52.494;13.420;2023-09-12T03:44:33;22.00;50.60
81218;DHT22;70689;52.494;13.420;2023-09-12T03:46:58;22.00;50.50
81218;DHT22;70689;52.494;13.420;2023-09-12T03:49:24;21.90;51.00
81218;DHT22;70689;52.494;13.420;2023-09-12T03:51:50;21.90;51.50
81218;DHT22;70689;52.494;13.420;2023-09-12T03:54:15;21.90;51.40
81218;DHT22;70689;52.494;13.420;2023-09-12T03:56:41;21.90;50.90
81218;DHT22;70689;52.494;13.420;2023-09-12T03:59:07;21.90;51.20
81218;DHT22;70689;52.494;13.420;2023-09-12T04:01:32;21.90;51.00
81218;DHT22;70689;52.494;13.420;2023-09-12T04:03:58;21.90;50.60
81218;DHT22;70689;52.494;13.420;2023-09-12T04:06:24;21.90;50.40
81218;DHT22;70689;52.494;13.420;2023-09-12T04:08:49;21.80;50.00
81218;DHT22;70689;52.494;13.420;2023-09-12T04:11:15;21.90;50.10
81218;DHT22;70689;52.494;13.420;2023-09-12T04:13:40;21.80;50.50
81218;DHT22;70689;52.494;13.420;2023-09-12T04:16:06;21.80;50.50
81218;DHT22;70689;52.494;13.420;2023-09-12T04:18:32;21.80;50.00
81218;DHT22;70689;52.494;13.420;2023-09-12T04:20:57;21.80;50.10
81218;DHT22;70689;52.494;13.420;2023-09-12T04:23:25;21.60;50.90
81218;DHT22;70689;52.494;13.420;2023-09-12T04:25:50;21.60;51.70
81218;DHT22;70689;52.494;13.420;2023-09-12T04:28:16;21.70;51.80
81218;DHT22;70689;52.494;13.420;2023-09-12T04:30:42;21.60;51.90
81218;DHT22;70689;52.494;13.420;2023-09-12T04:33:08;21.50;52.30
81218;DHT22;70689;52.494;13.420;2023-09-12T04:35:34;21.50;52.70
81218;DHT22;70689;52.494;13.420;2023-09-12T04:38:00;21.60;52.60
81218;DHT22;70689;52.494;13.420;2023-09-12T04:40:25;21.60;52.60
81218;DHT22;70689;52.494;13.420;2023-09-12T04:42:51;21.60;52.90
81218;DHT22;70689;52.494;13.420;2023-09-12T04:45:16;21.60;52.70
81218;DHT22;70689;52.494;13.420;2023-09-12T04:47:42;21.70;51.90
81218;DHT22;70689;52.494;13.420;2023-09-12T04:50:08;21.70;51.20
81218;DHT22;70689;52.494;13.420;2023-09-12T04:52:34;21.70;51.50
81218;DHT22;70689;52.494;13.420;2023-09-12T04:55:00;21.60;52.20
81218;DHT22;70689;52.494;13.420;2023-09-12T04:57:26;21.60;52.50
81218;DHT22;70689;52.494;13.420;2023-09-12T04:59:53;21.60;52.80
81218;DHT22;70689;52.494;13.420;2023-09-12T05:02:19;21.70;52.50
81218;DHT22;70689;52.494;13.420;2023-09-12T05:04:44;21.70;52.00
81218;DHT22;70689;52.494;13.420;2023-09-12T05:07:10;21.80;51.30
81218;DHT22;70689;52.494;13.420;2023-09-12T05:09:36;21.80;51.30
81218;DHT22;70689;52.494;13.420;2023-09-12T05:12:01;21.80;51.10
81218;DHT22;70689;52.494;13.420;2023-09-12T05:14:27;21.90;50.70
81218;DHT22;70689;52.494;13.420;2023-09-12T05:16:52;21.90;50.40
81218;DHT22;70689;52.494;13.420;2023-09-12T05:19:18;21.90;50.60
81218;DHT22;70689;52.494;13.420;2023-09-12T05:21:44;21.80;51.10
81218;DHT22;70689;52.494;13.420;2023-09-12T05:24:10;21.80;51.00
81218;DHT22;70689;52.494;13.420;2023-09-12T05:26:36;21.80;51.10
81218;DHT22;70689;52.494;13.420;2023-09-12T05:29:01;21.90;50.40
81218;DHT22;70689;52.494;13.420;2023-09-12T05:31:27;22.10;49.00
81218;DHT22;70689;52.494;13.420;2023-09-12T05:33:53;22.10;47.30
81218;DHT22;70689;52.494;13.420;2023-09-12T05:36:19;22.10;48.00
81218;DHT22;70689;52.494;13.420;2023-09-12T05:38:45;22.10;47.80
81218;DHT22;70689;52.494;13.420;2023-09-12T05:41:10;22.10;48.10
81218;DHT22;70689;52.494;13.420;2023-09-12T05:43:36;22.20;47.30
81218;DHT22;70689;52.494;13.420;2023-09-12T05:46:02;22.30;46.20
81218;DHT22;70689;52.494;13.420;2023-09-12T05:48:27;22.30;45.90
81218;DHT22;70689;52.494;13.420;2023-09-12T05:50:53;22.40;45.30
81218;DHT22;70689;52.494;13.420;2023-09-12T05:53:18;22.40;45.30
81218;DHT22;70689;52.494;13.420;2023-09-12T05:55:44;22.50;45.90
81218;DHT22;70689;52.494;13.420;2023-09-12T05:58:10;22.50;46.20
81218;DHT22;70689;52.494;13.420;2023-09-12T06:00:36;22.50;46.00
81218;DHT22;70689;52.494;13.420;2023-09-12T06:03:01;22.60;45.80
81218;DHT22;70689;52.494;13.420;2023-09-12T06:05:27;22.50;45.70
81218;DHT22;70689;52.494;13.420;2023-09-12T06:07:53;22.60;44.50
81218;DHT22;70689;52.494;13.420;2023-09-12T06:10:18;22.60;44.40
81218;DHT22;70689;52.494;13.420;2023-09-12T06:12:44;22.70;44.00
81218;DHT22;70689;52.494;13.420;2023-09-12T06:15:10;22.80;43.70
81218;DHT22;70689;52.494;13.420;2023-09-12T06:17:35;22.90;43.80
81218;DHT22;70689;52.494;13.420;2023-09-12T06:20:01;22.80;43.80
81218;DHT22;70689;52.494;13.420;2023-09-12T06:22:28;22.90;43.90
81218;DHT22;70689;52.494;13.420;2023-09-12T06:24:54;22.90;44.20
81218;DHT22;70689;52.494;13.420;2023-09-12T06:27:20;23.00;44.00
81218;DHT22;70689;52.494;13.420;2023-09-12T06:29:46;23.10;44.10
81218;DHT22;70689;52.494;13.420;2023-09-12T06:32:15;23.20;44.30
81218;DHT22;70689;52.494;13.420;2023-09-12T06:34:42;23.20;44.20
81218;DHT22;70689;52.494;13.420;2023-09-12T06:37:08;23.30;43.90
81218;DHT22;70689;52.494;13.420;2023-09-12T06:39:33;23.40;43.80
81218;DHT22;70689;52.494;13.420;2023-09-12T06:41:59;23.40;43.50
81218;DHT22;70689;52.494;13.420;2023-09-12T06:44:24;23.40;43.40
81218;DHT22;70689;52.494;13.420;2023-09-12T06:46:50;23.50;43.40
81218;DHT22;70689;52.494;13.420;2023-09-12T06:49:16;23.50;43.20
81218;DHT22;70689;52.494;13.420;2023-09-12T06:51:41;23.60;43.60
81218;DHT22;70689;52.494;13.420;2023-09-12T06:54:07;23.70;42.90
81218;DHT22;70689;52.494;13.420;2023-09-12T06:56:33;23.90;42.90
81218;DHT22;70689;52.494;13.420;2023-09-12T06:59:05;24.10;41.70
81218;DHT22;70689;52.494;13.420;2023-09-12T07:01:31;24.10;41.50
81218;DHT22;70689;52.494;13.420;2023-09-12T07:03:56;24.80;40.20
81218;DHT22;70689;52.494;13.420;2023-09-12T07:06:23;26.50;37.00
81218;DHT22;70689;52.494;13.420;2023-09-12T07:08:49;28.30;33.10
81218;DHT22;70689;52.494;13.420;2023-09-12T07:11:15;29.90;29.90
81218;DHT22;70689;52.494;13.420;2023-09-12T07:13:40;31.40;27.50
81218;DHT22;70689;52.494;13.420;2023-09-12T07:16:06;32.50;26.30
81218;DHT22;70689;52.494;13.420;2023-09-12T07:18:32;33.00;25.00
81218;DHT22;70689;52.494;13.420;2023-09-12T07:21:03;33.50;24.40
81218;DHT22;70689;52.494;13.420;2023-09-12T07:23:29;34.30;23.40
81218;DHT22;70689;52.494;13.420;2023-09-12T07:25:57;34.50;23.10
81218;DHT22;70689;52.494;13.420;2023-09-12T07:28:26;34.80;22.80
81218;DHT22;70689;52.494;13.420;2023-09-12T07:30:55;35.50;21.40
81218;DHT22;70689;52.494;13.420;2023-09-12T07:33:21;35.80;21.70
81218;DHT22;70689;52.494;13.420;2023-09-12T07:35:47;35.90;20.70
81218;DHT22;70689;52.494;13.420;2023-09-12T07:38:13;35.60;20.90
81218;DHT22;70689;52.494;13.420;2023-09-12T07:40:41;35.10;21.70
81218;DHT22;70689;52.494;13.420;2023-09-12T07:43:07;35.20;21.90
81218;DHT22;70689;52.494;13.420;2023-09-12T07:45:32;35.70;21.20
81218;DHT22;70689;52.494;13.420;2023-09-12T07:48:06;36.00;20.80
81218;DHT22;70689;52.494;13.420;2023-09-12T07:50:31;35.60;21.60
81218;DHT22;70689;52.494;13.420;2023-09-12T07:52:57;34.80;22.50
81218;DHT22;70689;52.494;13.420;2023-09-12T07:55:23;34.50;22.70
81218;DHT22;70689;52.494;13.420;2023-09-12T07:57:48;33.90;23.50
81218;DHT22;70689;52.494;13.420;2023-09-12T08:00:14;32.90;25.10
81218;DHT22;70689;52.494;13.420;2023-09-12T08:02:40;32.00;25.70
81218;DHT22;70689;52.494;13.420;2023-09-12T08:05:08;31.50;27.10
81218;DHT22;70689;52.494;13.420;2023-09-12T08:07:34;31.30;27.30
81218;DHT22;70689;52.494;13.420;2023-09-12T08:10:00;31.10;27.00
81218;DHT22;70689;52.494;13.420;2023-09-12T08:12:27;31.40;27.40
81218;DHT22;70689;52.494;13.420;2023-09-12T08:14:53;31.40;27.90
81218;DHT22;70689;52.494;13.420;2023-09-12T08:17:20;31.10;27.30
81218;DHT22;70689;52.494;13.420;2023-09-12T08:19:46;30.70;27.40
81218;DHT22;70689;52.494;13.420;2023-09-12T08:22:12;30.20;28.60
81218;DHT22;70689;52.494;13.420;2023-09-12T08:24:39;29.80;29.10
81218;DHT22;70689;52.494;13.420;2023-09-12T08:27:05;29.60;30.00
81218;DHT22;70689;52.494;13.420;2023-09-12T08:29:31;29.40;31.30
81218;DHT22;70689;52.494;13.420;2023-09-12T08:31:58;29.20;31.20
81218;DHT22;70689;52.494;13.420;2023-09-12T08:34:24;29.10;31.60
81218;DHT22;70689;52.494;13.420;2023-09-12T08:36:50;29.00;31.70
81218;DHT22;70689;52.494;13.420;2023-09-12T08:39:18;29.10;31.90
81218;DHT22;70689;52.494;13.420;2023-09-12T08:41:43;29.10;30.30
81218;DHT22;70689;52.494;13.420;2023-09-12T08:44:12;29.20;30.10
81218;DHT22;70689;52.494;13.420;2023-09-12T08:46:39;29.00;30.30
81218;DHT22;70689;52.494;13.420;2023-09-12T08:49:05;29.10;31.60
81218;DHT22;70689;52.494;13.420;2023-09-12T08:51:31;29.10;32.70
81218;DHT22;70689;52.494;13.420;2023-09-12T08:53:58;29.30;30.50
81218;DHT22;70689;52.494;13.420;2023-09-12T08:56:23;29.20;30.70
81218;DHT22;70689;52.494;13.420;2023-09-12T08:58:51;29.70;30.40
81218;DHT22;70689;52.494;13.420;2023-09-12T09:01:18;30.10;30.60
81218;DHT22;70689;52.494;13.420;2023-09-12T09:03:44;30.20;29.40
81218;DHT22;70689;52.494;13.420;2023-09-12T09:06:12;30.00;29.20
81218;DHT22;70689;52.494;13.420;2023-09-12T09:08:39;29.90;29.80
81218;DHT22;70689;52.494;13.420;2023-09-12T09:11:05;29.90;30.00
81218;DHT22;70689;52.494;13.420;2023-09-12T09:13:35;29.80;29.80
81218;DHT22;70689;52.494;13.420;2023-09-12T09:16:14;29.90;29.90
81218;DHT22;70689;52.494;13.420;2023-09-12T09:19:09;29.90;29.20
81218;DHT22;70689;52.494;13.420;2023-09-12T09:21:37;30.00;29.70
81218;DHT22;70689;52.494;13.420;2023-09-12T09:24:13;30.00;30.00
81218;DHT22;70689;52.494;13.420;2023-09-12T09:26:48;30.10;30.00
81218;DHT22;70689;52.494;13.420;2023-09-12T09:29:19;30.40;29.60
81218;DHT22;70689;52.494;13.420;2023-09-12T09:31:47;31.20;28.10
81218;DHT22;70689;52.494;13.420;2023-09-12T09:34:17;31.80;27.80
81218;DHT22;70689;52.494;13.420;2023-09-12T09:36:47;32.10;26.90
81218;DHT22;70689;52.494;13.420;2023-09-12T09:39:13;31.70;28.10
81218;DHT22;70689;52.494;13.420;2023-09-12T09:41:40;31.60;28.90
81218;DHT22;70689;52.494;13.420;2023-09-12T09:44:09;32.50;27.30
81218;DHT22;70689;52.494;13.420;2023-09-12T09:46:37;34.10;25.70
81218;DHT22;70689;52.494;13.420;2023-09-12T09:49:03;35.40;23.30
81218;DHT22;70689;52.494;13.420;2023-09-12T09:51:30;36.50;21.90
81218;DHT22;70689;52.494;13.420;2023-09-12T09:53:56;36.40;21.90
81218;DHT22;70689;52.494;13.420;2023-09-12T09:56:24;35.90;22.80
81218;DHT22;70689;52.494;13.420;2023-09-12T09:58:54;35.00;24.20
81218;DHT22;70689;52.494;13.420;2023-09-12T10:01:27;34.60;24.80
81218;DHT22;70689;52.494;13.420;2023-09-12T10:03:59;34.60;24.60
81218;DHT22;70689;52.494;13.420;2023-09-12T10:06:28;34.40;25.00
81218;DHT22;70689;52.494;13.420;2023-09-12T10:08:55;33.90;25.80
81218;DHT22;70689;52.494;13.420;2023-09-12T10:11:25;33.90;26.10
81218;DHT22;70689;52.494;13.420;2023-09-12T10:13:55;33.60;26.50
81218;DHT22;70689;52.494;13.420;2023-09-12T10:16:30;33.30;26.70
81218;DHT22;70689;52.494;13.420;2023-09-12T10:24:46;31.70;29.30
81218;DHT22;70689;52.494;13.420;2023-09-12T10:27:14;31.70;29.80
81218;DHT22;70689;52.494;13.420;2023-09-12T10:29:40;31.80;29.40
81218;DHT22;70689;52.494;13.420;2023-09-12T10:32:06;32.10;28.90
81218;DHT22;70689;52.494;13.420;2023-09-12T10:34:34;32.20;28.70
81218;DHT22;70689;52.494;13.420;2023-09-12T10:37:03;32.10;28.60
81218;DHT22;70689;52.494;13.420;2023-09-12T10:39:32;31.90;28.80
81218;DHT22;70689;52.494;13.420;2023-09-12T10:41:59;31.50;30.50
81218;DHT22;70689;52.494;13.420;2023-09-12T10:44:25;31.50;29.70
81218;DHT22;70689;52.494;13.420;2023-09-12T10:46:52;31.20;30.00
81218;DHT22;70689;52.494;13.420;2023-09-12T10:49:18;31.30;30.00
81218;DHT22;70689;52.494;13.420;2023-09-12T10:51:46;31.50;29.40
81218;DHT22;70689;52.494;13.420;2023-09-12T10:54:35;32.10;28.20
81218;DHT22;70689;52.494;13.420;2023-09-12T10:57:07;32.40;27.70
81218;DHT22;70689;52.494;13.420;2023-09-12T10:59:33;32.90;26.70
81218;DHT22;70689;52.494;13.420;2023-09-12T11:02:30;33.50;26.50
81218;DHT22;70689;52.494;13.420;2023-09-12T11:05:00;35.20;24.40
81218;DHT22;70689;52.494;13.420;2023-09-12T11:10:15;37.90;20.70
81218;DHT22;70689;52.494;13.420;2023-09-12T11:12:49;38.30;19.90
81218;DHT22;70689;52.494;13.420;2023-09-12T11:15:15;38.50;19.70
81218;DHT22;70689;52.494;13.420;2023-09-12T11:17:46;38.20;19.80
81218;DHT22;70689;52.494;13.420;2023-09-12T11:20:13;38.40;20.30
81218;DHT22;70689;52.494;13.420;2023-09-12T11:22:46;38.00;20.10
81218;DHT22;70689;52.494;13.420;2023-09-12T11:25:25;36.70;21.90
81218;DHT22;70689;52.494;13.420;2023-09-12T11:30:18;33.80;25.90
81218;DHT22;70689;52.494;13.420;2023-09-12T11:32:48;33.10;27.60
81218;DHT22;70689;52.494;13.420;2023-09-12T11:35:14;33.00;27.60
81218;DHT22;70689;52.494;13.420;2023-09-12T11:37:48;33.20;27.50
81218;DHT22;70689;52.494;13.420;2023-09-12T11:40:16;34.20;25.30
81218;DHT22;70689;52.494;13.420;2023-09-12T11:42:44;34.80;24.30
81218;DHT22;70689;52.494;13.420;2023-09-12T11:45:12;34.80;24.80
81218;DHT22;70689;52.494;13.420;2023-09-12T11:47:42;34.70;24.80
81218;DHT22;70689;52.494;13.420;2023-09-12T11:53:03;35.10;24.40
81218;DHT22;70689;52.494;13.420;2023-09-12T11:55:34;36.20;23.30
81218;DHT22;70689;52.494;13.420;2023-09-12T11:58:00;36.80;21.60
81218;DHT22;70689;52.494;13.420;2023-09-12T12:00:27;36.90;21.20
81218;DHT22;70689;52.494;13.420;2023-09-12T12:02:54;36.40;22.60
81218;DHT22;70689;52.494;13.420;2023-09-12T12:05:20;35.80;23.50
81218;DHT22;70689;52.494;13.420;2023-09-12T12:07:47;35.10;24.40
81218;DHT22;70689;52.494;13.420;2023-09-12T12:10:14;34.50;24.70
81218;DHT22;70689;52.494;13.420;2023-09-12T12:12:41;34.00;25.40
81218;DHT22;70689;52.494;13.420;2023-09-12T12:15:10;33.40;26.40
81218;DHT22;70689;52.494;13.420;2023-09-12T12:17:42;33.00;27.10
81218;DHT22;70689;52.494;13.420;2023-09-12T12:20:09;32.90;27.10
81218;DHT22;70689;52.494;13.420;2023-09-12T12:22:39;32.90;27.60
81218;DHT22;70689;52.494;13.420;2023-09-12T12:25:09;32.80;27.30
81218;DHT22;70689;52.494;13.420;2023-09-12T12:27:38;32.70;28.00
81218;DHT22;70689;52.494;13.420;2023-09-12T12:30:09;32.70;27.70
81218;DHT22;70689;52.494;13.420;2023-09-12T12:32:40;32.80;27.20
81218;DHT22;70689;52.494;13.420;2023-09-12T12:35:06;33.00;27.10
81218;DHT22;70689;52.494;13.420;2023-09-12T12:37:33;33.40;26.20
81218;DHT22;70689;52.494;13.420;2023-09-12T12:40:00;33.80;25.60
81218;DHT22;70689;52.494;13.420;2023-09-12T12:42:38;33.70;25.80
81218;DHT22;70689;52.494;13.420;2023-09-12T12:45:11;33.30;26.20
81218;DHT22;70689;52.494;13.420;2023-09-12T12:47:38;32.70;27.00
81218;DHT22;70689;52.494;13.420;2023-09-12T12:50:11;32.30;27.80
81218;DHT22;70689;52.494;13.420;2023-09-12T12:52:41;32.20;27.60
81218;DHT22;70689;52.494;13.420;2023-09-12T12:55:10;32.10;28.00
81218;DHT22;70689;52.494;13.420;2023-09-12T12:57:42;31.80;28.40
81218;DHT22;70689;52.494;13.420;2023-09-12T13:00:10;31.80;28.20
81218;DHT22;70689;52.494;13.420;2023-09-12T13:02:40;32.00;27.70
81218;DHT22;70689;52.494;13.420;2023-09-12T13:05:26;32.50;27.80
81218;DHT22;70689;52.494;13.420;2023-09-12T13:07:52;32.90;27.30
81218;DHT22;70689;52.494;13.420;2023-09-12T13:10:18;33.40;26.60
81218;DHT22;70689;52.494;13.420;2023-09-12T13:12:44;33.90;25.10
81218;DHT22;70689;52.494;13.420;2023-09-12T13:15:13;33.60;25.10
81218;DHT22;70689;52.494;13.420;2023-09-12T13:17:41;33.20;25.90
81218;DHT22;70689;52.494;13.420;2023-09-12T13:20:07;32.90;26.20
81218;DHT22;70689;52.494;13.420;2023-09-12T13:22:37;32.80;26.20
81218;DHT22;70689;52.494;13.420;2023-09-12T13:25:03;32.90;26.20
81218;DHT22;70689;52.494;13.420;2023-09-12T13:27:29;32.30;26.90
81218;DHT22;70689;52.494;13.420;2023-09-12T13:29:54;32.10;27.30
81218;DHT22;70689;52.494;13.420;2023-09-12T13:32:20;31.90;27.30
81218;DHT22;70689;52.494;13.420;2023-09-12T13:34:46;31.50;27.20
81218;DHT22;70689;52.494;13.420;2023-09-12T13:37:12;31.10;27.60
81218;DHT22;70689;52.494;13.420;2023-09-12T13:39:37;31.20;28.40
81218;DHT22;70689;52.494;13.420;2023-09-12T13:42:03;31.10;28.30
81218;DHT22;70689;52.494;13.420;2023-09-12T13:44:31;31.20;28.30
81218;DHT22;70689;52.494;13.420;2023-09-12T13:46:56;31.20;28.30
81218;DHT22;70689;52.494;13.420;2023-09-12T13:49:22;31.20;29.00
81218;DHT22;70689;52.494;13.420;2023-09-12T13:51:47;31.40;28.20
81218;DHT22;70689;52.494;13.420;2023-09-12T13:54:13;31.30;27.70
81218;DHT22;70689;52.494;13.420;2023-09-12T13:56:42;31.30;28.40
81218;DHT22;70689;52.494;13.420;2023-09-12T13:59:07;31.20;28.70
81218;DHT22;70689;52.494;13.420;2023-09-12T14:01:33;31.50;28.10
81218;DHT22;70689;52.494;13.420;2023-09-12T14:03:59;31.60;28.10
81218;DHT22;70689;52.494;13.420;2023-09-12T14:06:25;31.70;28.60
81218;DHT22;70689;52.494;13.420;2023-09-12T14:08:52;31.70;28.10
81218;DHT22;70689;52.494;13.420;2023-09-12T14:11:17;31.80;28.80
81218;DHT22;70689;52.494;13.420;2023-09-12T14:13:43;31.80;27.40
81218;DHT22;70689;52.494;13.420;2023-09-12T14:16:09;31.70;27.50
81218;DHT22;70689;52.494;13.420;2023-09-12T14:18:34;31.50;28.50
81218;DHT22;70689;52.494;13.420;2023-09-12T14:21:00;31.40;27.50
81218;DHT22;70689;52.494;13.420;2023-09-12T14:23:25;31.40;28.10
81218;DHT22;70689;52.494;13.420;2023-09-12T14:25:51;31.40;29.00
81218;DHT22;70689;52.494;13.420;2023-09-12T14:28:17;31.40;29.90
81218;DHT22;70689;52.494;13.420;2023-09-12T14:30:43;31.20;29.20
81218;DHT22;70689;52.494;13.420;2023-09-12T14:33:10;31.10;29.70
81218;DHT22;70689;52.494;13.420;2023-09-12T14:35:37;31.10;29.80
81218;DHT22;70689;52.494;13.420;2023-09-12T14:38:02;31.00;30.00
81218;DHT22;70689;52.494;13.420;2023-09-12T14:40:29;30.90;29.80
81218;DHT22;70689;52.494;13.420;2023-09-12T14:42:55;30.80;30.10
81218;DHT22;70689;52.494;13.420;2023-09-12T14:45:21;30.80;31.30
81218;DHT22;70689;52.494;13.420;2023-09-12T14:47:47;30.80;29.80
81218;DHT22;70689;52.494;13.420;2023-09-12T14:50:12;30.80;29.70
81218;DHT22;70689;52.494;13.420;2023-09-12T14:52:38;30.80;29.70
81218;DHT22;70689;52.494;13.420;2023-09-12T14:55:05;30.80;30.00
81218;DHT22;70689;52.494;13.420;2023-09-12T14:57:32;30.60;30.30
81218;DHT22;70689;52.494;13.420;2023-09-12T14:59:58;30.70;31.00
81218;DHT22;70689;52.494;13.420;2023-09-12T15:02:25;30.80;31.80
81218;DHT22;70689;52.494;13.420;2023-09-12T15:05:00;30.60;32.40
81218;DHT22;70689;52.494;13.420;2023-09-12T15:07:27;30.60;31.30
81218;DHT22;70689;52.494;13.420;2023-09-12T15:09:55;30.50;31.30
81218;DHT22;70689;52.494;13.420;2023-09-12T15:12:20;30.40;31.90
81218;DHT22;70689;52.494;13.420;2023-09-12T15:14:46;30.30;31.70
81218;DHT22;70689;52.494;13.420;2023-09-12T15:17:11;30.20;32.10
81218;DHT22;70689;52.494;13.420;2023-09-12T15:19:37;30.00;32.50
81218;DHT22;70689;52.494;13.420;2023-09-12T15:22:03;29.80;33.40
81218;DHT22;70689;52.494;13.420;2023-09-12T15:24:28;29.50;33.90
81218;DHT22;70689;52.494;13.420;2023-09-12T15:26:54;29.40;34.50
81218;DHT22;70689;52.494;13.420;2023-09-12T15:29:20;29.20;34.80
81218;DHT22;70689;52.494;13.420;2023-09-12T15:31:45;29.10;34.90
81218;DHT22;70689;52.494;13.420;2023-09-12T15:34:11;29.20;34.30